sensor_id;sensor_type;location;lat;lon;timestamp;P1;durP1;ratioP1;P2;durP2;ratioP2
18455;SDS011;9357;49.900;8.208;2022-12-13T00:01:15;67.95;;;27.20;;
18455;SDS011;9357;49.900;8.208;2022-12-13T00:02:50;63.38;;;26.95;;
18455;SDS011;9357;49.900;8.208;2022-12-13T00:04:23;65.53;;;28.17;;
18455;SDS011;9357;49.900;8.208;2022-12-13T00:05:56;67.63;;;28.05;;
18455;SDS011;9357;49.900;8.208;2022-12-13T00:07:28;65.05;;;26.27;;
18455;SDS011;9357;49.900;8.208;2022-12-13T00:09:02;69.80;;;27.67;;
18455;SDS011;9357;49.900;8.208;2022-12-13T00:10:36;65.13;;;27.50;;
18455;SDS011;9357;49.900;8.208;2022-12-13T00:12:08;67.88;;;27.92;;
18455;SDS011;9357;49.900;8.208;2022-12-13T00:13:41;65.65;;;26.88;;
18455;SDS011;9357;49.900;8.208;2022-12-13T00:15:16;73.22;;;27.60;;
18455;SDS011;9357;49.900;8.208;2022-12-13T00:16:49;62.25;;;26.75;;
18455;SDS011;9357;49.900;8.208;2022-12-13T00:18:23;66.72;;;27.52;;
18455;SDS011;9357;49.900;8.208;2022-12-13T00:19:56;69.38;;;27.70;;
18455;SDS011;9357;49.900;8.208;2022-12-13T00:21:30;63.55;;;27.15;;
18455;SDS011;9357;49.900;8.208;2022-12-13T00:23:03;67.20;;;28.15;;
18455;SDS011;9357;49.900;8.208;2022-12-13T00:24:36;63.35;;;26.02;;
18455;SDS011;9357;49.900;8.208;2022-12-13T00:26:17;69.05;;;27.90;;
18455;SDS011;9357;49.900;8.208;2022-12-13T00:27:51;62.35;;;25.98;;
18455;SDS011;9357;49.900;8.208;2022-12-13T00:29:24;61.83;;;26.13;;
18455;SDS011;9357;49.900;8.208;2022-12-13T00:30:57;67.22;;;27.38;;
18455;SDS011;9357;49.900;8.208;2022-12-13T00:32:50;66.97;;;26.65;;
18455;SDS011;9357;49.900;8.208;2022-12-13T00:34:24;59.28;;;25.23;;
18455;SDS011;9357;49.900;8.208;2022-12-13T00:35:57;66.25;;;26.70;;
18455;SDS011;9357;49.900;8.208;2022-12-13T00:37:30;57.55;;;26.23;;
18455;SDS011;9357;49.900;8.208;2022-12-13T00:39:03;62.42;;;27.08;;
18455;SDS011;9357;49.900;8.208;2022-12-13T00:40:35;57.58;;;26.38;;
18455;SDS011;9357;49.900;8.208;2022-12-13T00:42:08;62.08;;;26.80;;
18455;SDS011;9357;49.900;8.208;2022-12-13T00:43:41;59.35;;;26.70;;
18455;SDS011;9357;49.900;8.208;2022-12-13T00:45:13;63.65;;;27.33;;
18455;SDS011;9357;49.900;8.208;2022-12-13T00:46:46;72.32;;;28.88;;
18455;SDS011;9357;49.900;8.208;2022-12-13T00:48:21;66.47;;;27.05;;
18455;SDS011;9357;49.900;8.208;2022-12-13T00:49:55;66.15;;;27.52;;
18455;SDS011;9357;49.900;8.208;2022-12-13T00:51:29;63.63;;;26.48;;
18455;SDS011;9357;49.900;8.208;2022-12-13T00:53:03;61.63;;;26.70;;
18455;SDS011;9357;49.900;8.208;2022-12-13T00:54:36;71.25;;;28.02;;
18455;SDS011;9357;49.900;8.208;2022-12-13T00:56:09;65.60;;;26.83;;
18455;SDS011;9357;49.900;8.208;2022-12-13T00:57:43;64.65;;;26.20;;
18455;SDS011;9357;49.900;8.208;2022-12-13T00:59:16;67.63;;;26.90;;
18455;SDS011;9357;49.900;8.208;2022-12-13T01:00:48;70.90;;;28.08;;
18455;SDS011;9357;49.900;8.208;2022-12-13T01:02:21;66.60;;;26.85;;
18455;SDS011;9357;49.900;8.208;2022-12-13T01:03:55;64.78;;;26.35;;
18455;SDS011;9357;49.900;8.208;2022-12-13T01:05:30;66.55;;;26.75;;
18455;SDS011;9357;49.900;8.208;2022-12-13T01:07:26;63.05;;;25.58;;
18455;SDS011;9357;49.900;8.208;2022-12-13T01:08:58;66.75;;;26.75;;
18455;SDS011;9357;49.900;8.208;2022-12-13T01:10:31;66.60;;;27.88;;
18455;SDS011;9357;49.900;8.208;2022-12-13T01:12:04;61.55;;;26.10;;
18455;SDS011;9357;49.900;8.208;2022-12-13T01:13:37;65.47;;;26.30;;
18455;SDS011;9357;49.900;8.208;2022-12-13T01:15:09;61.42;;;26.85;;
18455;SDS011;9357;49.900;8.208;2022-12-13T01:16:43;64.07;;;26.05;;
18455;SDS011;9357;49.900;8.208;2022-12-13T01:18:16;68.25;;;26.92;;
18455;SDS011;9357;49.900;8.208;2022-12-13T01:19:49;63.75;;;26.73;;
18455;SDS011;9357;49.900;8.208;2022-12-13T01:21:23;64.22;;;26.13;;
18455;SDS011;9357;49.900;8.208;2022-12-13T01:22:56;59.45;;;25.33;;
18455;SDS011;9357;49.900;8.208;2022-12-13T01:24:29;61.05;;;25.42;;
18455;SDS011;9357;49.900;8.208;2022-12-13T01:26:03;60.92;;;24.70;;
18455;SDS011;9357;49.900;8.208;2022-12-13T01:27:37;57.97;;;25.23;;
18455;SDS011;9357;49.900;8.208;2022-12-13T01:29:10;63.10;;;25.52;;
18455;SDS011;9357;49.900;8.208;2022-12-13T01:30:43;59.80;;;26.63;;
18455;SDS011;9357;49.900;8.208;2022-12-13T01:32:16;62.63;;;25.52;;
18455;SDS011;9357;49.900;8.208;2022-12-13T01:33:49;62.95;;;27.38;;
18455;SDS011;9357;49.900;8.208;2022-12-13T01:35:21;56.72;;;24.67;;
18455;SDS011;9357;49.900;8.208;2022-12-13T01:36:55;62.83;;;26.38;;
18455;SDS011;9357;49.900;8.208;2022-12-13T01:38:29;59.17;;;24.90;;
18455;SDS011;9357;49.900;8.208;2022-12-13T01:40:08;64.40;;;26.55;;
18455;SDS011;9357;49.900;8.208;2022-12-13T01:41:47;64.47;;;25.83;;
18455;SDS011;9357;49.900;8.208;2022-12-13T01:43:21;63.22;;;26.52;;
18455;SDS011;9357;49.900;8.208;2022-12-13T01:46:52;60.75;;;25.67;;
18455;SDS011;9357;49.900;8.208;2022-12-13T01:48:25;60.05;;;25.92;;
18455;SDS011;9357;49.900;8.208;2022-12-13T01:50:04;56.72;;;24.33;;
18455;SDS011;9357;49.900;8.208;2022-12-13T01:51:40;60.80;;;25.30;;
18455;SDS011;9357;49.900;8.208;2022-12-13T01:53:17;61.65;;;27.55;;
18455;SDS011;9357;49.900;8.208;2022-12-13T01:54:52;67.68;;;26.58;;
18455;SDS011;9357;49.900;8.208;2022-12-13T01:56:34;64.18;;;24.80;;
18455;SDS011;9357;49.900;8.208;2022-12-13T01:58:11;60.00;;;24.65;;
18455;SDS011;9357;49.900;8.208;2022-12-13T01:59:46;61.20;;;26.30;;
18455;SDS011;9357;49.900;8.208;2022-12-13T02:01:20;61.20;;;25.23;;
18455;SDS011;9357;49.900;8.208;2022-12-13T02:02:53;57.58;;;25.65;;
18455;SDS011;9357;49.900;8.208;2022-12-13T02:04:29;59.88;;;25.27;;
18455;SDS011;9357;49.900;8.208;2022-12-13T02:06:15;55.58;;;25.23;;
18455;SDS011;9357;49.900;8.208;2022-12-13T02:07:50;63.30;;;26.23;;
18455;SDS011;9357;49.900;8.208;2022-12-13T02:09:25;66.68;;;26.73;;
18455;SDS011;9357;49.900;8.208;2022-12-13T02:10:58;61.88;;;25.05;;
18455;SDS011;9357;49.900;8.208;2022-12-13T02:12:33;60.72;;;27.17;;
18455;SDS011;9357;49.900;8.208;2022-12-13T02:14:07;62.95;;;25.42;;
18455;SDS011;9357;49.900;8.208;2022-12-13T02:15:42;61.08;;;26.45;;
18455;SDS011;9357;49.900;8.208;2022-12-13T02:17:21;63.92;;;26.60;;
18455;SDS011;9357;49.900;8.208;2022-12-13T02:19:15;61.50;;;25.17;;
18455;SDS011;9357;49.900;8.208;2022-12-13T02:21:20;61.65;;;24.88;;
18455;SDS011;9357;49.900;8.208;2022-12-13T02:23:06;64.47;;;26.75;;
18455;SDS011;9357;49.900;8.208;2022-12-13T02:25:05;63.33;;;25.45;;
18455;SDS011;9357;49.900;8.208;2022-12-13T02:26:51;68.88;;;24.00;;
18455;SDS011;9357;49.900;8.208;2022-12-13T02:28:35;58.30;;;24.70;;
18455;SDS011;9357;49.900;8.208;2022-12-13T02:30:25;58.45;;;24.52;;
18455;SDS011;9357;49.900;8.208;2022-12-13T02:32:03;67.45;;;26.52;;
18455;SDS011;9357;49.900;8.208;2022-12-13T02:33:42;57.65;;;24.48;;
18455;SDS011;9357;49.900;8.208;2022-12-13T02:35:24;66.70;;;25.58;;
18455;SDS011;9357;49.900;8.208;2022-12-13T02:37:02;64.53;;;26.33;;
18455;SDS011;9357;49.900;8.208;2022-12-13T02:38:51;59.70;;;24.63;;
18455;SDS011;9357;49.900;8.208;2022-12-13T02:40:28;66.25;;;24.92;;
18455;SDS011;9357;49.900;8.208;2022-12-13T02:42:03;63.53;;;25.90;;
18455;SDS011;9357;49.900;8.208;2022-12-13T02:43:53;63.20;;;24.83;;
18455;SDS011;9357;49.900;8.208;2022-12-13T02:45:33;60.90;;;25.63;;
18455;SDS011;9357;49.900;8.208;2022-12-13T02:47:11;65.80;;;24.08;;
18455;SDS011;9357;49.900;8.208;2022-12-13T02:48:52;60.97;;;25.20;;
18455;SDS011;9357;49.900;8.208;2022-12-13T02:50:28;65.88;;;26.17;;
18455;SDS011;9357;49.900;8.208;2022-12-13T02:52:05;68.35;;;25.55;;
18455;SDS011;9357;49.900;8.208;2022-12-13T02:53:42;63.33;;;23.65;;
18455;SDS011;9357;49.900;8.208;2022-12-13T02:55:16;60.13;;;23.60;;
18455;SDS011;9357;49.900;8.208;2022-12-13T02:56:52;64.60;;;24.98;;
18455;SDS011;9357;49.900;8.208;2022-12-13T02:58:26;66.75;;;24.75;;
18455;SDS011;9357;49.900;8.208;2022-12-13T03:00:05;58.30;;;24.42;;
18455;SDS011;9357;49.900;8.208;2022-12-13T03:01:48;63.13;;;24.73;;
18455;SDS011;9357;49.900;8.208;2022-12-13T03:03:41;64.07;;;24.70;;
18455;SDS011;9357;49.900;8.208;2022-12-13T03:05:24;59.10;;;23.42;;
18455;SDS011;9357;49.900;8.208;2022-12-13T03:07:25;56.13;;;22.77;;
18455;SDS011;9357;49.900;8.208;2022-12-13T03:09:09;55.78;;;23.33;;
18455;SDS011;9357;49.900;8.208;2022-12-13T03:10:58;59.10;;;22.77;;
18455;SDS011;9357;49.900;8.208;2022-12-13T03:12:36;57.97;;;23.63;;
18455;SDS011;9357;49.900;8.208;2022-12-13T03:14:34;55.03;;;23.02;;
18455;SDS011;9357;49.900;8.208;2022-12-13T03:16:14;61.03;;;24.20;;
18455;SDS011;9357;49.900;8.208;2022-12-13T03:17:55;59.47;;;23.88;;
18455;SDS011;9357;49.900;8.208;2022-12-13T03:19:31;61.70;;;25.52;;
18455;SDS011;9357;49.900;8.208;2022-12-13T03:21:05;58.13;;;24.20;;
18455;SDS011;9357;49.900;8.208;2022-12-13T03:22:40;60.58;;;24.27;;
18455;SDS011;9357;49.900;8.208;2022-12-13T03:24:12;60.42;;;25.10;;
18455;SDS011;9357;49.900;8.208;2022-12-13T03:25:48;67.22;;;25.88;;
18455;SDS011;9357;49.900;8.208;2022-12-13T03:27:23;68.07;;;25.55;;
18455;SDS011;9357;49.900;8.208;2022-12-13T03:28:56;61.47;;;25.20;;
18455;SDS011;9357;49.900;8.208;2022-12-13T03:30:29;64.40;;;25.25;;
18455;SDS011;9357;49.900;8.208;2022-12-13T03:32:02;66.43;;;25.55;;
18455;SDS011;9357;49.900;8.208;2022-12-13T03:33:36;65.97;;;25.88;;
18455;SDS011;9357;49.900;8.208;2022-12-13T03:35:09;63.00;;;25.40;;
18455;SDS011;9357;49.900;8.208;2022-12-13T03:36:52;61.13;;;24.63;;
18455;SDS011;9357;49.900;8.208;2022-12-13T03:38:25;65.68;;;25.38;;
18455;SDS011;9357;49.900;8.208;2022-12-13T03:39:58;55.88;;;25.15;;
18455;SDS011;9357;49.900;8.208;2022-12-13T03:41:31;64.80;;;25.98;;
18455;SDS011;9357;49.900;8.208;2022-12-13T03:43:04;64.47;;;25.45;;
18455;SDS011;9357;49.900;8.208;2022-12-13T03:44:37;64.65;;;24.98;;
18455;SDS011;9357;49.900;8.208;2022-12-13T03:46:10;66.32;;;25.67;;
18455;SDS011;9357;49.900;8.208;2022-12-13T03:47:42;64.82;;;25.50;;
18455;SDS011;9357;49.900;8.208;2022-12-13T03:49:17;63.63;;;25.30;;
18455;SDS011;9357;49.900;8.208;2022-12-13T03:50:49;68.07;;;26.60;;
18455;SDS011;9357;49.900;8.208;2022-12-13T03:52:23;66.80;;;24.02;;
18455;SDS011;9357;49.900;8.208;2022-12-13T03:53:56;62.22;;;24.50;;
18455;SDS011;9357;49.900;8.208;2022-12-13T03:55:29;65.45;;;23.85;;
18455;SDS011;9357;49.900;8.208;2022-12-13T03:57:01;63.63;;;24.13;;
18455;SDS011;9357;49.900;8.208;2022-12-13T03:58:34;61.40;;;25.13;;
18455;SDS011;9357;49.900;8.208;2022-12-13T04:00:09;63.30;;;24.73;;
18455;SDS011;9357;49.900;8.208;2022-12-13T04:01:42;60.33;;;22.80;;
18455;SDS011;9357;49.900;8.208;2022-12-13T04:03:15;63.85;;;25.15;;
18455;SDS011;9357;49.900;8.208;2022-12-13T04:04:49;65.50;;;24.95;;
18455;SDS011;9357;49.900;8.208;2022-12-13T04:06:22;62.25;;;24.17;;
18455;SDS011;9357;49.900;8.208;2022-12-13T04:08:03;65.25;;;25.25;;
18455;SDS011;9357;49.900;8.208;2022-12-13T04:09:52;60.58;;;23.95;;
18455;SDS011;9357;49.900;8.208;2022-12-13T04:11:25;66.85;;;24.98;;
18455;SDS011;9357;49.900;8.208;2022-12-13T04:13:15;58.60;;;23.98;;
18455;SDS011;9357;49.900;8.208;2022-12-13T04:15:05;68.20;;;25.00;;
18455;SDS011;9357;49.900;8.208;2022-12-13T04:16:39;66.18;;;24.17;;
18455;SDS011;9357;49.900;8.208;2022-12-13T04:18:12;62.90;;;24.55;;
18455;SDS011;9357;49.900;8.208;2022-12-13T04:19:44;69.00;;;24.58;;
18455;SDS011;9357;49.900;8.208;2022-12-13T04:21:18;71.88;;;25.42;;
18455;SDS011;9357;49.900;8.208;2022-12-13T04:22:50;69.15;;;24.85;;
18455;SDS011;9357;49.900;8.208;2022-12-13T04:24:23;64.90;;;24.70;;
18455;SDS011;9357;49.900;8.208;2022-12-13T04:26:02;72.38;;;25.80;;
18455;SDS011;9357;49.900;8.208;2022-12-13T04:27:35;60.17;;;23.88;;
18455;SDS011;9357;49.900;8.208;2022-12-13T04:29:08;71.28;;;26.63;;
18455;SDS011;9357;49.900;8.208;2022-12-13T04:30:41;63.60;;;24.77;;
18455;SDS011;9357;49.900;8.208;2022-12-13T04:32:13;73.05;;;26.23;;
18455;SDS011;9357;49.900;8.208;2022-12-13T04:33:57;70.35;;;25.27;;
18455;SDS011;9357;49.900;8.208;2022-12-13T04:35:30;66.20;;;25.00;;
18455;SDS011;9357;49.900;8.208;2022-12-13T04:37:04;66.18;;;24.52;;
18455;SDS011;9357;49.900;8.208;2022-12-13T04:38:37;69.75;;;26.17;;
18455;SDS011;9357;49.900;8.208;2022-12-13T04:40:10;67.70;;;24.38;;
18455;SDS011;9357;49.900;8.208;2022-12-13T04:41:52;71.30;;;25.10;;
18455;SDS011;9357;49.900;8.208;2022-12-13T04:43:24;70.65;;;25.15;;
18455;SDS011;9357;49.900;8.208;2022-12-13T04:44:57;73.80;;;24.95;;
18455;SDS011;9357;49.900;8.208;2022-12-13T04:46:30;68.72;;;25.75;;
18455;SDS011;9357;49.900;8.208;2022-12-13T04:48:03;69.55;;;26.55;;
18455;SDS011;9357;49.900;8.208;2022-12-13T04:49:36;71.55;;;25.98;;
18455;SDS011;9357;49.900;8.208;2022-12-13T04:51:09;74.78;;;25.25;;
18455;SDS011;9357;49.900;8.208;2022-12-13T04:52:43;74.00;;;26.42;;
18455;SDS011;9357;49.900;8.208;2022-12-13T04:54:16;67.88;;;25.35;;
18455;SDS011;9357;49.900;8.208;2022-12-13T04:55:54;67.30;;;24.88;;
18455;SDS011;9357;49.900;8.208;2022-12-13T04:57:27;72.22;;;26.70;;
18455;SDS011;9357;49.900;8.208;2022-12-13T04:59:00;82.75;;;26.17;;
18455;SDS011;9357;49.900;8.208;2022-12-13T05:00:32;68.40;;;25.08;;
18455;SDS011;9357;49.900;8.208;2022-12-13T05:02:05;65.32;;;24.90;;
18455;SDS011;9357;49.900;8.208;2022-12-13T05:03:39;66.20;;;25.08;;
18455;SDS011;9357;49.900;8.208;2022-12-13T05:05:12;70.05;;;25.38;;
18455;SDS011;9357;49.900;8.208;2022-12-13T05:06:45;71.78;;;24.98;;
18455;SDS011;9357;49.900;8.208;2022-12-13T05:08:19;71.00;;;25.58;;
18455;SDS011;9357;49.900;8.208;2022-12-13T05:09:52;68.40;;;24.90;;
18455;SDS011;9357;49.900;8.208;2022-12-13T05:11:25;68.68;;;24.88;;
18455;SDS011;9357;49.900;8.208;2022-12-13T05:13:05;66.35;;;24.83;;
18455;SDS011;9357;49.900;8.208;2022-12-13T05:14:38;70.38;;;24.52;;
18455;SDS011;9357;49.900;8.208;2022-12-13T05:16:11;77.10;;;26.20;;
18455;SDS011;9357;49.900;8.208;2022-12-13T05:17:46;69.22;;;23.67;;
18455;SDS011;9357;49.900;8.208;2022-12-13T05:19:18;72.32;;;25.65;;
18455;SDS011;9357;49.900;8.208;2022-12-13T05:21:01;68.88;;;24.33;;
18455;SDS011;9357;49.900;8.208;2022-12-13T05:22:34;65.40;;;24.48;;
18455;SDS011;9357;49.900;8.208;2022-12-13T05:24:09;74.82;;;24.95;;
18455;SDS011;9357;49.900;8.208;2022-12-13T05:25:42;67.25;;;24.35;;
18455;SDS011;9357;49.900;8.208;2022-12-13T05:27:15;77.07;;;24.63;;
18455;SDS011;9357;49.900;8.208;2022-12-13T05:28:56;68.75;;;25.35;;
18455;SDS011;9357;49.900;8.208;2022-12-13T05:30:29;72.10;;;26.05;;
18455;SDS011;9357;49.900;8.208;2022-12-13T05:32:03;75.10;;;25.50;;
18455;SDS011;9357;49.900;8.208;2022-12-13T05:33:36;73.97;;;25.73;;
18455;SDS011;9357;49.900;8.208;2022-12-13T05:35:09;72.10;;;24.90;;
18455;SDS011;9357;49.900;8.208;2022-12-13T05:36:43;67.45;;;24.33;;
18455;SDS011;9357;49.900;8.208;2022-12-13T05:38:16;64.15;;;24.88;;
18455;SDS011;9357;49.900;8.208;2022-12-13T05:39:50;67.43;;;25.30;;
18455;SDS011;9357;49.900;8.208;2022-12-13T05:41:23;75.50;;;26.20;;
18455;SDS011;9357;49.900;8.208;2022-12-13T05:42:58;68.80;;;24.58;;
18455;SDS011;9357;49.900;8.208;2022-12-13T05:44:32;66.18;;;24.92;;
18455;SDS011;9357;49.900;8.208;2022-12-13T05:46:05;69.40;;;24.58;;
18455;SDS011;9357;49.900;8.208;2022-12-13T05:47:37;69.47;;;25.20;;
18455;SDS011;9357;49.900;8.208;2022-12-13T05:49:10;68.22;;;24.70;;
18455;SDS011;9357;49.900;8.208;2022-12-13T05:50:43;67.72;;;25.15;;
18455;SDS011;9357;49.900;8.208;2022-12-13T05:52:16;68.40;;;25.10;;
18455;SDS011;9357;49.900;8.208;2022-12-13T05:53:49;66.10;;;24.52;;
18455;SDS011;9357;49.900;8.208;2022-12-13T05:55:25;67.53;;;24.80;;
18455;SDS011;9357;49.900;8.208;2022-12-13T05:56:58;72.75;;;25.48;;
18455;SDS011;9357;49.900;8.208;2022-12-13T05:58:30;66.05;;;24.65;;
18455;SDS011;9357;49.900;8.208;2022-12-13T06:00:07;67.78;;;24.48;;
18455;SDS011;9357;49.900;8.208;2022-12-13T06:02:00;64.72;;;23.23;;
18455;SDS011;9357;49.900;8.208;2022-12-13T06:03:33;68.97;;;25.27;;
18455;SDS011;9357;49.900;8.208;2022-12-13T06:05:07;74.53;;;25.38;;
18455;SDS011;9357;49.900;8.208;2022-12-13T06:06:40;67.20;;;25.55;;
18455;SDS011;9357;49.900;8.208;2022-12-13T06:08:13;70.13;;;24.25;;
18455;SDS011;9357;49.900;8.208;2022-12-13T06:09:55;66.95;;;24.13;;
18455;SDS011;9357;49.900;8.208;2022-12-13T06:11:42;64.60;;;23.58;;
18455;SDS011;9357;49.900;8.208;2022-12-13T06:13:15;63.30;;;22.75;;
18455;SDS011;9357;49.900;8.208;2022-12-13T06:15:02;66.70;;;24.38;;
18455;SDS011;9357;49.900;8.208;2022-12-13T06:16:52;59.28;;;21.75;;
18455;SDS011;9357;49.900;8.208;2022-12-13T06:18:25;57.67;;;22.25;;
18455;SDS011;9357;49.900;8.208;2022-12-13T06:19:58;62.45;;;22.65;;
18455;SDS011;9357;49.900;8.208;2022-12-13T06:21:31;66.18;;;22.98;;
18455;SDS011;9357;49.900;8.208;2022-12-13T06:23:16;57.90;;;22.65;;
18455;SDS011;9357;49.900;8.208;2022-12-13T06:24:49;63.13;;;23.92;;
18455;SDS011;9357;49.900;8.208;2022-12-13T06:26:22;64.57;;;23.17;;
18455;SDS011;9357;49.900;8.208;2022-12-13T06:27:56;59.85;;;23.13;;
18455;SDS011;9357;49.900;8.208;2022-12-13T06:29:31;63.88;;;22.95;;
18455;SDS011;9357;49.900;8.208;2022-12-13T06:31:04;62.53;;;24.00;;
18455;SDS011;9357;49.900;8.208;2022-12-13T06:32:37;57.25;;;23.58;;
18455;SDS011;9357;49.900;8.208;2022-12-13T06:34:14;61.25;;;22.75;;
18455;SDS011;9357;49.900;8.208;2022-12-13T06:35:47;63.45;;;24.02;;
18455;SDS011;9357;49.900;8.208;2022-12-13T06:37:19;55.60;;;23.08;;
18455;SDS011;9357;49.900;8.208;2022-12-13T06:38:52;64.57;;;23.75;;
18455;SDS011;9357;49.900;8.208;2022-12-13T06:40:25;64.07;;;23.70;;
18455;SDS011;9357;49.900;8.208;2022-12-13T06:41:57;55.17;;;21.83;;
18455;SDS011;9357;49.900;8.208;2022-12-13T06:43:32;59.38;;;22.08;;
18455;SDS011;9357;49.900;8.208;2022-12-13T06:45:06;59.65;;;23.20;;
18455;SDS011;9357;49.900;8.208;2022-12-13T06:46:39;55.38;;;22.20;;
18455;SDS011;9357;49.900;8.208;2022-12-13T06:48:11;58.75;;;23.25;;
18455;SDS011;9357;49.900;8.208;2022-12-13T06:49:50;55.97;;;21.00;;
18455;SDS011;9357;49.900;8.208;2022-12-13T06:51:23;61.40;;;23.05;;
18455;SDS011;9357;49.900;8.208;2022-12-13T06:53:03;53.70;;;21.13;;
18455;SDS011;9357;49.900;8.208;2022-12-13T06:54:36;58.92;;;22.90;;
18455;SDS011;9357;49.900;8.208;2022-12-13T06:56:09;56.55;;;21.25;;
18455;SDS011;9357;49.900;8.208;2022-12-13T06:57:44;59.28;;;21.77;;
18455;SDS011;9357;49.900;8.208;2022-12-13T06:59:18;56.70;;;21.75;;
18455;SDS011;9357;49.900;8.208;2022-12-13T07:00:59;55.88;;;21.95;;
18455;SDS011;9357;49.900;8.208;2022-12-13T07:02:33;57.13;;;21.80;;
18455;SDS011;9357;49.900;8.208;2022-12-13T07:04:07;59.58;;;21.38;;
18455;SDS011;9357;49.900;8.208;2022-12-13T07:06:02;61.97;;;22.65;;
18455;SDS011;9357;49.900;8.208;2022-12-13T07:07:37;59.00;;;21.63;;
18455;SDS011;9357;49.900;8.208;2022-12-13T07:09:10;69.18;;;22.33;;
18455;SDS011;9357;49.900;8.208;2022-12-13T07:10:42;58.38;;;22.13;;
18455;SDS011;9357;49.900;8.208;2022-12-13T07:12:16;53.28;;;20.55;;
18455;SDS011;9357;49.900;8.208;2022-12-13T07:13:49;63.25;;;21.90;;
18455;SDS011;9357;49.900;8.208;2022-12-13T07:15:23;58.78;;;21.38;;
18455;SDS011;9357;49.900;8.208;2022-12-13T07:16:57;60.22;;;22.00;;
18455;SDS011;9357;49.900;8.208;2022-12-13T07:18:34;56.75;;;21.88;;
18455;SDS011;9357;49.900;8.208;2022-12-13T07:20:07;49.40;;;20.20;;
18455;SDS011;9357;49.900;8.208;2022-12-13T07:21:41;54.10;;;20.48;;
18455;SDS011;9357;49.900;8.208;2022-12-13T07:23:14;52.72;;;22.30;;
18455;SDS011;9357;49.900;8.208;2022-12-13T07:24:54;55.88;;;21.30;;
18455;SDS011;9357;49.900;8.208;2022-12-13T07:26:27;53.45;;;21.83;;
18455;SDS011;9357;49.900;8.208;2022-12-13T07:28:01;58.55;;;21.67;;
18455;SDS011;9357;49.900;8.208;2022-12-13T07:29:36;54.63;;;20.70;;
18455;SDS011;9357;49.900;8.208;2022-12-13T07:31:10;53.35;;;21.52;;
18455;SDS011;9357;49.900;8.208;2022-12-13T07:32:43;49.25;;;20.73;;
18455;SDS011;9357;49.900;8.208;2022-12-13T07:34:15;56.92;;;22.10;;
18455;SDS011;9357;49.900;8.208;2022-12-13T07:35:48;56.38;;;21.92;;
18455;SDS011;9357;49.900;8.208;2022-12-13T07:37:25;47.60;;;20.10;;
18455;SDS011;9357;49.900;8.208;2022-12-13T07:39:01;53.65;;;21.38;;
18455;SDS011;9357;49.900;8.208;2022-12-13T07:40:34;51.00;;;20.88;;
18455;SDS011;9357;49.900;8.208;2022-12-13T07:42:07;55.58;;;21.00;;
18455;SDS011;9357;49.900;8.208;2022-12-13T07:43:40;53.22;;;20.42;;
18455;SDS011;9357;49.900;8.208;2022-12-13T07:45:13;50.00;;;20.17;;
18455;SDS011;9357;49.900;8.208;2022-12-13T07:46:47;53.95;;;21.02;;
18455;SDS011;9357;49.900;8.208;2022-12-13T07:48:20;50.65;;;20.10;;
18455;SDS011;9357;49.900;8.208;2022-12-13T07:49:53;50.72;;;20.90;;
18455;SDS011;9357;49.900;8.208;2022-12-13T07:51:26;48.40;;;19.73;;
18455;SDS011;9357;49.900;8.208;2022-12-13T07:53:02;49.47;;;20.63;;
18455;SDS011;9357;49.900;8.208;2022-12-13T07:54:35;51.15;;;20.88;;
18455;SDS011;9357;49.900;8.208;2022-12-13T07:56:08;48.78;;;21.02;;
18455;SDS011;9357;49.900;8.208;2022-12-13T07:57:43;46.72;;;19.10;;
18455;SDS011;9357;49.900;8.208;2022-12-13T07:59:16;52.90;;;21.42;;
18455;SDS011;9357;49.900;8.208;2022-12-13T08:00:59;51.08;;;21.48;;
18455;SDS011;9357;49.900;8.208;2022-12-13T08:02:34;45.92;;;19.55;;
18455;SDS011;9357;49.900;8.208;2022-12-13T08:04:07;51.88;;;20.65;;
18455;SDS011;9357;49.900;8.208;2022-12-13T08:05:40;54.70;;;22.30;;
18455;SDS011;9357;49.900;8.208;2022-12-13T08:07:13;49.15;;;21.05;;
18455;SDS011;9357;49.900;8.208;2022-12-13T08:08:46;49.35;;;20.40;;
18455;SDS011;9357;49.900;8.208;2022-12-13T08:10:21;50.38;;;21.17;;
18455;SDS011;9357;49.900;8.208;2022-12-13T08:11:54;52.10;;;21.20;;
18455;SDS011;9357;49.900;8.208;2022-12-13T08:13:26;53.28;;;22.10;;
18455;SDS011;9357;49.900;8.208;2022-12-13T08:14:59;48.05;;;20.52;;
18455;SDS011;9357;49.900;8.208;2022-12-13T08:16:32;51.38;;;20.95;;
18455;SDS011;9357;49.900;8.208;2022-12-13T08:18:06;48.85;;;21.13;;
18455;SDS011;9357;49.900;8.208;2022-12-13T08:19:39;47.78;;;20.65;;
18455;SDS011;9357;49.900;8.208;2022-12-13T08:21:12;51.63;;;20.15;;
18455;SDS011;9357;49.900;8.208;2022-12-13T08:23:05;44.03;;;19.52;;
18455;SDS011;9357;49.900;8.208;2022-12-13T08:24:40;47.65;;;20.30;;
18455;SDS011;9357;49.900;8.208;2022-12-13T08:26:13;47.60;;;19.92;;
18455;SDS011;9357;49.900;8.208;2022-12-13T08:27:46;48.45;;;20.15;;
18455;SDS011;9357;49.900;8.208;2022-12-13T08:29:19;46.55;;;19.77;;
18455;SDS011;9357;49.900;8.208;2022-12-13T08:30:53;52.17;;;20.35;;
18455;SDS011;9357;49.900;8.208;2022-12-13T08:32:26;49.70;;;19.23;;
18455;SDS011;9357;49.900;8.208;2022-12-13T08:34:00;50.40;;;18.80;;
18455;SDS011;9357;49.900;8.208;2022-12-13T08:35:33;45.65;;;19.67;;
18455;SDS011;9357;49.900;8.208;2022-12-13T08:37:06;50.30;;;20.80;;
18455;SDS011;9357;49.900;8.208;2022-12-13T08:38:39;45.20;;;19.23;;
18455;SDS011;9357;49.900;8.208;2022-12-13T08:40:11;44.00;;;19.15;;
18455;SDS011;9357;49.900;8.208;2022-12-13T08:41:44;44.95;;;19.80;;
18455;SDS011;9357;49.900;8.208;2022-12-13T08:43:17;44.70;;;19.35;;
18455;SDS011;9357;49.900;8.208;2022-12-13T08:44:55;45.92;;;19.73;;
18455;SDS011;9357;49.900;8.208;2022-12-13T08:46:28;48.10;;;19.50;;
18455;SDS011;9357;49.900;8.208;2022-12-13T08:48:01;42.60;;;18.55;;
18455;SDS011;9357;49.900;8.208;2022-12-13T08:49:35;47.88;;;19.60;;
18455;SDS011;9357;49.900;8.208;2022-12-13T08:51:08;45.15;;;19.48;;
18455;SDS011;9357;49.900;8.208;2022-12-13T08:52:43;44.53;;;18.92;;
18455;SDS011;9357;49.900;8.208;2022-12-13T08:54:15;48.50;;;19.23;;
18455;SDS011;9357;49.900;8.208;2022-12-13T08:56:02;41.10;;;18.30;;
18455;SDS011;9357;49.900;8.208;2022-12-13T08:57:36;44.47;;;18.88;;
18455;SDS011;9357;49.900;8.208;2022-12-13T08:59:09;43.78;;;19.25;;
18455;SDS011;9357;49.900;8.208;2022-12-13T09:00:46;46.80;;;19.25;;
18455;SDS011;9357;49.900;8.208;2022-12-13T09:02:18;45.63;;;19.70;;
18455;SDS011;9357;49.900;8.208;2022-12-13T09:03:51;47.25;;;19.08;;
18455;SDS011;9357;49.900;8.208;2022-12-13T09:05:27;42.60;;;18.70;;
18455;SDS011;9357;49.900;8.208;2022-12-13T09:07:04;42.03;;;18.60;;
18455;SDS011;9357;49.900;8.208;2022-12-13T09:08:38;46.90;;;18.83;;
18455;SDS011;9357;49.900;8.208;2022-12-13T09:10:11;40.08;;;18.33;;
18455;SDS011;9357;49.900;8.208;2022-12-13T09:11:57;44.38;;;18.98;;
18455;SDS011;9357;49.900;8.208;2022-12-13T09:13:31;41.28;;;18.80;;
18455;SDS011;9357;49.900;8.208;2022-12-13T09:15:14;42.75;;;18.10;;
18455;SDS011;9357;49.900;8.208;2022-12-13T09:16:53;43.55;;;17.65;;
18455;SDS011;9357;49.900;8.208;2022-12-13T09:18:33;42.45;;;18.98;;
18455;SDS011;9357;49.900;8.208;2022-12-13T09:20:07;43.92;;;19.60;;
18455;SDS011;9357;49.900;8.208;2022-12-13T09:22:00;42.45;;;19.00;;
18455;SDS011;9357;49.900;8.208;2022-12-13T09:23:34;45.20;;;17.95;;
18455;SDS011;9357;49.900;8.208;2022-12-13T09:25:16;46.67;;;20.45;;
18455;SDS011;9357;49.900;8.208;2022-12-13T09:26:54;41.17;;;18.85;;
18455;SDS011;9357;49.900;8.208;2022-12-13T09:28:28;41.85;;;18.58;;
18455;SDS011;9357;49.900;8.208;2022-12-13T09:30:01;41.97;;;18.73;;